Time;durP1;ratioP1;P1;durP2;ratioP2;P2;SDS_P1;SDS_P2;PMS_P1;PMS_P2;Temp;Humidity;BMP_temperature;BMP_pressure;BME280_temperature;BME280_humidity;BME280_pressure;Samples;Min_cycle;Max_cycle;Signal;HPM_P1;HPM_P2
2021/03/04 00:02:23;;;;;;;95.00;37.28;;;;;;;3.38;100.00;102442.50;5037079;28;20060;-62
2021/03/04 00:04:49;;;;;;;96.50;37.33;;;;;;;3.31;100.00;102450.69;5039333;28;20050;-63
2021/03/04 00:07:16;;;;;;;89.28;35.00;;;;;;;3.25;100.00;102436.69;5037153;28;20546;-62
2021/03/04 00:09:42;;;;;;;96.05;36.17;;;;;;;3.27;100.00;102429.56;5038638;28;20513;-63
2021/03/04 00:12:09;;;;;;;97.28;36.30;;;;;;;3.26;100.00;102427.81;5036696;28;20056;-63
2021/03/04 00:14:35;;;;;;;85.95;35.15;;;;;;;3.22;100.00;102416.38;5039542;28;20056;-63
2021/03/04 00:17:01;;;;;;;91.13;34.80;;;;;;;3.31;100.00;102420.53;5034756;28;20544;-63
2021/03/04 00:19:27;;;;;;;91.57;36.13;;;;;;;3.25;100.00;102410.94;5037483;28;20045;-63
2021/03/04 00:21:53;;;;;;;88.43;34.15;;;;;;;3.33;100.00;102413.38;5040164;28;20068;-63
2021/03/04 00:24:20;;;;;;;97.45;36.42;;;;;;;3.29;100.00;102407.28;5036148;28;20049;-64
2021/03/04 00:26:46;;;;;;;105.03;38.45;;;;;;;3.23;100.00;102401.28;5037954;28;20049;-62
2021/03/04 00:29:13;;;;;;;95.32;35.63;;;;;;;3.31;100.00;102407.22;5034576;28;20116;-62
2021/03/04 00:31:39;;;;;;;94.82;37.30;;;;;;;3.24;100.00;102413.66;5038651;28;20054;-63
2021/03/04 00:34:05;;;;;;;90.82;35.55;;;;;;;3.22;100.00;102420.84;5038049;28;20063;-62
2021/03/04 00:36:31;;;;;;;97.50;36.67;;;;;;;3.14;100.00;102419.28;5037063;28;20057;-62
2021/03/04 00:38:57;;;;;;;102.85;38.38;;;;;;;3.21;100.00;102419.09;5036772;28;20477;-63
2021/03/04 00:41:24;;;;;;;97.65;38.30;;;;;;;3.21;100.00;102421.75;5038025;28;20671;-63
2021/03/04 00:43:50;;;;;;;96.70;34.33;;;;;;;3.16;100.00;102416.56;5038802;28;20449;-63
2021/03/04 00:46:15;;;;;;;96.43;35.80;;;;;;;3.21;100.00;102419.09;5039027;28;20061;-62
2021/03/04 00:48:42;;;;;;;93.35;35.78;;;;;;;3.30;100.00;102410.81;5035939;28;20057;-63
2021/03/04 00:51:08;;;;;;;98.05;36.60;;;;;;;3.11;100.00;102406.09;5036684;28;20589;-63
2021/03/04 00:53:34;;;;;;;95.70;35.97;;;;;;;3.29;100.00;102401.09;5044949;28;20052;-62
2021/03/04 00:56:27;;;;;;;94.05;34.88;;;;;;;3.17;100.00;102402.38;5060600;23;20065;-62
2021/03/04 00:58:53;;;;;;;85.93;34.35;;;;;;;3.17;100.00;102394.38;5034063;28;20508;-63
2021/03/04 01:01:19;;;;;;;92.97;35.30;;;;;;;3.23;100.00;102390.66;5036427;28;20053;-63
2021/03/04 01:03:45;;;;;;;97.80;35.67;;;;;;;3.22;100.00;102388.91;5038625;28;20564;-62
2021/03/04 01:06:12;;;;;;;95.57;34.33;;;;;;;3.22;100.00;102384.44;5037691;28;20065;-63
2021/03/04 01:08:38;;;;;;;81.18;33.38;;;;;;;3.25;100.00;102383.47;5036209;28;20052;-62
2021/03/04 01:11:04;;;;;;;84.32;33.67;;;;;;;3.14;100.00;102382.03;5036071;28;20468;-63
2021/03/04 01:13:30;;;;;;;82.53;31.30;;;;;;;3.09;100.00;102373.34;5038667;28;20482;-62
2021/03/04 01:15:56;;;;;;;88.47;32.85;;;;;;;3.21;100.00;102373.84;5035961;28;20091;-63
2021/03/04 01:18:22;;;;;;;82.95;32.97;;;;;;;3.18;100.00;102376.63;5035216;28;20049;-62
2021/03/04 01:20:48;;;;;;;77.93;32.42;;;;;;;3.19;100.00;102365.06;5038064;28;20421;-62
2021/03/04 01:23:14;;;;;;;93.35;35.40;;;;;;;3.12;100.00;102359.94;5037200;28;20057;-63
2021/03/04 01:25:40;;;;;;;89.63;36.40;;;;;;;3.12;100.00;102351.97;5034302;28;20123;-62
2021/03/04 01:28:06;;;;;;;91.38;35.60;;;;;;;3.13;100.00;102352.81;5035634;28;20520;-63
2021/03/04 01:30:34;;;;;;;85.20;34.33;;;;;;;3.07;100.00;102356.56;5036454;28;20052;-62
2021/03/04 01:33:00;;;;;;;87.82;33.35;;;;;;;3.06;100.00;102352.19;5037613;28;20045;-62
2021/03/04 01:35:26;;;;;;;87.15;32.58;;;;;;;2.98;100.00;102351.56;5037239;28;20079;-63
2021/03/04 01:37:54;;;;;;;94.78;32.88;;;;;;;3.05;100.00;102344.22;5037190;28;20058;-62
2021/03/04 01:40:21;;;;;;;88.70;35.10;;;;;;;3.09;100.00;102338.78;5037224;28;20106;-63
2021/03/04 01:42:48;;;;;;;93.35;32.25;;;;;;;3.10;100.00;102337.84;5037891;28;20068;-63
2021/03/04 01:45:14;;;;;;;94.68;33.05;;;;;;;3.09;100.00;102336.13;5035887;28;20111;-63
2021/03/04 01:47:45;;;;;;;103.50;34.35;;;;;;;3.07;100.00;102340.59;5035650;28;20520;-62
2021/03/04 01:50:12;;;;;;;99.60;35.25;;;;;;;3.06;100.00;102354.84;5036810;28;20521;-63
2021/03/04 01:52:38;;;;;;;105.15;35.30;;;;;;;3.11;100.00;102358.19;5036507;28;20099;-62
2021/03/04 01:55:05;;;;;;;94.25;32.85;;;;;;;3.19;100.00;102351.75;5036871;28;20052;-63
2021/03/04 01:57:32;;;;;;;90.50;33.13;;;;;;;3.20;100.00;102354.38;5034069;28;20060;-62
2021/03/04 01:59:58;;;;;;;94.55;33.75;;;;;;;3.14;100.00;102362.56;5038766;28;20099;-62
2021/03/04 02:02:25;;;;;;;92.65;33.53;;;;;;;3.14;100.00;102357.25;5036954;28;20056;-63
2021/03/04 02:04:52;;;;;;;82.80;31.63;;;;;;;3.18;100.00;102353.56;5035933;28;20049;-62
2021/03/04 02:07:28;;;;;;;90.50;32.92;;;;;;;3.20;100.00;102337.53;5035039;28;20049;-63
2021/03/04 02:09:59;;;;;;;97.72;34.00;;;;;;;3.11;100.00;102333.41;5036978;28;20392;-62
2021/03/04 02:12:33;;;;;;;91.82;33.08;;;;;;;3.18;100.00;102324.28;5036839;28;20053;-62
2021/03/04 02:15:03;;;;;;;97.85;34.05;;;;;;;3.17;100.00;102321.69;5036875;28;20065;-63
2021/03/04 02:17:32;;;;;;;89.72;33.80;;;;;;;3.20;100.00;102322.44;5036775;28;20058;-62
2021/03/04 02:20:04;;;;;;;107.82;36.03;;;;;;;3.24;100.00;102315.22;5037608;28;20045;-63
2021/03/04 02:25:04;;;;;;;96.18;35.60;;;;;;;3.06;100.00;102314.94;5040625;23;20065;-63
2021/03/04 02:27:32;;;;;;;99.93;35.20;;;;;;;3.00;100.00;102312.47;5027092;28;20118;-62
2021/03/04 02:30:03;;;;;;;95.22;33.15;;;;;;;3.17;100.00;102311.91;5033525;28;20580;-63
2021/03/04 02:32:32;;;;;;;100.68;35.33;;;;;;;3.19;100.00;102303.88;5032711;28;20041;-63
2021/03/04 02:35:05;;;;;;;87.45;32.55;;;;;;;3.20;100.00;102303.81;5029368;28;20485;-63
2021/03/04 02:37:36;;;;;;;93.70;33.17;;;;;;;3.17;100.00;102306.59;5026731;28;20545;-62
2021/03/04 02:40:04;;;;;;;90.88;33.60;;;;;;;3.17;100.00;102303.06;5037800;28;20045;-62
2021/03/04 02:42:32;;;;;;;104.80;36.05;;;;;;;3.18;100.00;102296.78;5036159;28;20052;-63
2021/03/04 02:44:59;;;;;;;91.88;33.88;;;;;;;3.23;100.00;102300.19;5036927;28;20058;-63
2021/03/04 02:47:27;;;;;;;104.32;35.38;;;;;;;3.28;100.00;102298.22;5034004;28;20501;-63
2021/03/04 02:49:54;;;;;;;90.80;33.28;;;;;;;3.35;100.00;102293.56;5039642;23;20053;-62
2021/03/04 02:52:21;;;;;;;95.10;34.53;;;;;;;3.36;100.00;102293.50;5026301;28;20062;-62
2021/03/04 02:54:48;;;;;;;93.53;33.65;;;;;;;3.36;100.00;102288.19;5027263;28;20077;-62
2021/03/04 02:57:14;;;;;;;90.00;33.92;;;;;;;3.12;100.00;102271.28;5021937;28;20113;-63
2021/03/04 02:59:43;;;;;;;91.93;33.63;;;;;;;3.17;100.00;102273.81;5027901;28;20053;-62
2021/03/04 03:02:11;;;;;;;87.57;32.58;;;;;;;3.22;100.00;102269.16;5027980;28;20052;-63
2021/03/04 03:04:38;;;;;;;101.60;33.97;;;;;;;3.34;100.00;102271.38;5026225;28;20498;-63
2021/03/04 03:07:07;;;;;;;86.85;32.45;;;;;;;3.35;100.00;102280.25;5023524;28;20061;-62
2021/03/04 03:09:34;;;;;;;73.82;29.35;;;;;;;3.32;100.00;102279.41;5026392;28;20053;-63
2021/03/04 03:12:01;;;;;;;84.60;32.30;;;;;;;3.29;100.00;102270.69;5026932;28;20053;-62
2021/03/04 03:14:29;;;;;;;83.47;31.20;;;;;;;3.28;100.00;102258.31;5028597;28;20076;-63
2021/03/04 03:16:56;;;;;;;78.43;28.65;;;;;;;3.34;100.00;102255.41;5029115;28;20061;-62
2021/03/04 03:19:22;;;;;;;74.82;29.40;;;;;;;3.37;100.00;102244.66;5031011;28;20454;-64
2021/03/04 03:21:48;;;;;;;79.68;30.42;;;;;;;3.38;100.00;102241.09;5030629;28;20054;-62
2021/03/04 03:24:14;;;;;;;78.60;30.10;;;;;;;3.46;100.00;102243.47;5027072;28;20114;-62
2021/03/04 03:26:40;;;;;;;80.50;30.67;;;;;;;3.31;100.00;102255.53;5025726;28;20498;-62
2021/03/04 03:29:06;;;;;;;85.28;31.20;;;;;;;3.34;100.00;102247.44;5022437;28;20051;-63
2021/03/04 03:31:34;;;;;;;76.68;29.88;;;;;;;3.29;100.00;102249.41;5020718;28;20076;-63
2021/03/04 03:34:01;;;;;;;81.03;30.55;;;;;;;3.31;100.00;102237.78;5029817;28;20049;-63
2021/03/04 03:36:29;;;;;;;79.60;29.75;;;;;;;3.21;100.00;102238.16;5026508;28;20107;-63
2021/03/04 03:38:57;;;;;;;85.57;31.48;;;;;;;3.24;100.00;102243.38;5027824;28;20053;-63
2021/03/04 03:41:25;;;;;;;88.30;28.55;;;;;;;3.31;100.00;102228.91;5027232;28;20049;-63
2021/03/04 03:43:51;;;;;;;84.85;30.83;;;;;;;3.20;100.00;102231.13;5029266;28;20060;-62
2021/03/04 03:46:18;;;;;;;83.68;30.77;;;;;;;3.21;100.00;102219.53;5025918;28;20053;-62
2021/03/04 03:48:45;;;;;;;91.85;31.00;;;;;;;3.21;100.00;102211.56;5025864;28;20053;-62
2021/03/04 03:51:16;;;;;;;94.53;31.90;;;;;;;3.12;100.00;102213.63;5023344;28;20490;-62
2021/03/04 03:53:42;;;;;;;82.25;28.38;;;;;;;3.23;100.00;102207.06;5027199;28;20056;-63
2021/03/04 03:56:10;;;;;;;83.10;30.13;;;;;;;3.23;100.00;102209.72;5027889;28;20053;-63
2021/03/04 03:58:37;;;;;;;72.70;27.60;;;;;;;3.24;100.00;102195.47;5025075;28;20417;-63
2021/03/04 04:01:04;;;;;;;72.22;27.10;;;;;;;3.33;100.00;102190.69;5028714;28;20057;-63
2021/03/04 04:03:30;;;;;;;75.40;27.40;;;;;;;3.33;100.00;102192.50;5028620;28;20096;-63
2021/03/04 04:05:56;;;;;;;77.57;27.80;;;;;;;3.24;100.00;102195.47;5025803;28;20411;-63
2021/03/04 04:08:24;;;;;;;75.07;27.63;;;;;;;3.26;100.00;102201.63;5022511;28;20053;-63
2021/03/04 04:10:50;;;;;;;75.68;27.23;;;;;;;3.23;100.00;102207.91;5029375;28;20084;-62
2021/03/04 04:13:17;;;;;;;79.97;28.45;;;;;;;3.33;100.00;102187.19;5029936;28;20111;-63
2021/03/04 04:15:43;;;;;;;74.47;27.70;;;;;;;3.43;100.00;102193.00;5027561;28;20079;-62
2021/03/04 04:18:10;;;;;;;78.32;26.42;;;;;;;3.42;100.00;102185.97;5025325;28;20062;-63
2021/03/04 04:20:36;;;;;;;80.28;28.83;;;;;;;3.37;100.00;102179.94;5028813;28;20111;-63
2021/03/04 04:23:04;;;;;;;86.45;30.88;;;;;;;3.30;100.00;102169.53;5029515;28;20049;-62
2021/03/04 04:25:30;;;;;;;79.63;29.38;;;;;;;3.41;100.00;102173.56;5026488;28;20065;-62
2021/03/04 04:27:56;;;;;;;82.93;28.92;;;;;;;3.25;100.00;102166.13;5029480;28;20076;-62
2021/03/04 04:30:24;;;;;;;86.65;30.02;;;;;;;3.31;100.00;102183.69;5023595;28;20062;-63
2021/03/04 04:32:50;;;;;;;80.32;28.92;;;;;;;3.39;100.00;102192.25;5029859;28;20053;-63
2021/03/04 04:35:17;;;;;;;88.47;30.23;;;;;;;3.41;100.00;102193.06;5025424;28;20125;-63
2021/03/04 04:37:43;;;;;;;83.05;30.20;;;;;;;3.36;100.00;102189.72;5026336;28;20048;-63
2021/03/04 04:40:11;;;;;;;89.32;31.02;;;;;;;3.44;100.00;102198.28;5028074;28;20053;-63
2021/03/04 04:42:38;;;;;;;80.60;30.63;;;;;;;3.50;100.00;102192.75;5029392;28;20060;-63
2021/03/04 04:45:07;;;;;;;79.30;28.85;;;;;;;3.50;100.00;102203.38;5026230;28;21726;-62
2021/03/04 04:47:33;;;;;;;68.50;27.15;;;;;;;3.50;100.00;102192.75;5025750;28;20049;-62
2021/03/04 04:49:59;;;;;;;73.35;27.90;;;;;;;3.46;100.00;102201.75;5031252;28;20056;-62
2021/03/04 04:52:25;;;;;;;67.93;27.35;;;;;;;3.39;100.00;102197.59;5025150;28;20088;-62
2021/03/04 04:54:50;;;;;;;79.47;28.83;;;;;;;3.44;100.00;102200.06;5028225;28;20100;-62
2021/03/04 04:57:16;;;;;;;71.18;27.85;;;;;;;3.49;100.00;102196.31;5027271;28;20115;-63
2021/03/04 05:02:13;;;;;;;78.65;29.65;;;;;;;3.56;100.00;102186.28;5031305;23;20097;-63
2021/03/04 05:04:39;;;;;;;81.65;29.92;;;;;;;3.54;100.00;102179.31;5019861;28;20064;-62
2021/03/04 05:07:05;;;;;;;77.32;28.90;;;;;;;3.60;100.00;102179.94;5018915;28;20065;-63
2021/03/04 05:09:31;;;;;;;77.38;29.08;;;;;;;3.49;100.00;102180.34;5019079;28;20046;-62
2021/03/04 05:11:57;;;;;;;75.88;28.58;;;;;;;3.48;100.00;102165.28;5019088;28;20042;-64
2021/03/04 05:14:23;;;;;;;77.45;30.50;;;;;;;3.45;100.00;102169.88;5018187;28;20141;-62
2021/03/04 05:16:49;;;;;;;84.35;29.08;;;;;;;3.41;100.00;102170.91;5018219;28;20499;-63
2021/03/04 05:19:16;;;;;;;72.82;27.70;;;;;;;3.49;100.00;102172.38;5018446;28;20096;-62
2021/03/04 05:21:42;;;;;;;76.55;26.77;;;;;;;3.40;100.00;102167.41;5018506;28;20061;-62
2021/03/04 05:24:08;;;;;;;72.15;27.20;;;;;;;3.30;100.00;102163.34;5019535;28;20053;-62
2021/03/04 05:26:36;;;;;;;74.70;27.35;;;;;;;3.42;100.00;102168.19;5020679;28;20107;-63
2021/03/04 05:29:02;;;;;;;69.75;25.70;;;;;;;3.46;100.00;102161.84;5018289;28;20091;-63
2021/03/04 05:31:28;;;;;;;69.90;26.67;;;;;;;3.41;100.00;102154.94;5018591;28;20041;-62
2021/03/04 05:33:54;;;;;;;61.92;26.63;;;;;;;3.33;100.00;102157.91;5018527;28;20457;-63
2021/03/04 05:36:21;;;;;;;62.25;23.98;;;;;;;3.43;100.00;102153.97;5018988;28;20494;-63
2021/03/04 05:38:47;;;;;;;71.00;26.92;;;;;;;3.35;100.00;102150.72;5019033;28;20053;-62
2021/03/04 05:41:19;;;;;;;62.63;25.50;;;;;;;3.36;100.00;102140.94;5017645;28;20460;-63
2021/03/04 05:43:45;;;;;;;71.03;26.67;;;;;;;3.38;100.00;102139.94;5019760;28;20046;-63
2021/03/04 05:46:13;;;;;;;73.50;27.60;;;;;;;3.40;100.00;102147.88;5017917;28;20564;-62
2021/03/04 05:48:42;;;;;;;79.07;27.67;;;;;;;3.37;100.00;102140.00;5018559;28;20048;-62
2021/03/04 05:51:13;;;;;;;60.00;23.50;;;;;;;3.46;100.00;102140.53;5010615;28;20103;-62
2021/03/04 05:53:41;;;;;;;70.03;26.25;;;;;;;3.39;100.00;102146.16;5018992;28;20571;-63
2021/03/04 05:56:08;;;;;;;66.88;24.23;;;;;;;3.33;100.00;102137.47;5017484;28;20053;-63
2021/03/04 05:58:35;;;;;;;61.97;24.25;;;;;;;3.31;100.00;102134.00;5018941;28;20180;-62
2021/03/04 06:01:02;;;;;;;66.63;24.20;;;;;;;3.32;100.00;102135.72;5016465;28;20061;-63
2021/03/04 06:03:29;;;;;;;62.13;23.13;;;;;;;3.41;100.00;102131.84;5018876;28;20038;-63
2021/03/04 06:05:55;;;;;;;63.78;24.77;;;;;;;3.35;100.00;102124.09;5019443;28;20046;-63
2021/03/04 06:08:21;;;;;;;62.78;23.90;;;;;;;3.33;100.00;102131.28;5017623;28;20555;-62
2021/03/04 06:10:49;;;;;;;58.13;22.63;;;;;;;3.40;100.00;102129.25;5018784;28;20076;-62
2021/03/04 06:13:15;;;;;;;60.45;24.15;;;;;;;3.45;100.00;102138.78;5018284;28;20066;-63
2021/03/04 06:15:41;;;;;;;57.45;23.35;;;;;;;3.56;100.00;102138.38;5018494;28;20049;-63
2021/03/04 06:18:08;;;;;;;66.28;24.50;;;;;;;3.61;100.00;102154.19;5017250;28;20045;-62
2021/03/04 06:20:37;;;;;;;65.63;25.17;;;;;;;3.37;100.00;102148.00;5019013;28;20053;-64
2021/03/04 06:23:04;;;;;;;64.60;24.20;;;;;;;3.41;100.00;102150.47;5015400;28;20522;-62
2021/03/04 06:25:30;;;;;;;64.72;24.50;;;;;;;3.45;100.00;102151.25;5013036;28;20115;-62
2021/03/04 06:27:57;;;;;;;63.55;24.08;;;;;;;3.47;100.00;102144.06;5017584;28;20061;-63
2021/03/04 06:30:24;;;;;;;66.78;23.40;;;;;;;3.47;100.00;102144.91;5017646;28;20061;-62
2021/03/04 06:32:56;;;;;;;62.22;23.23;;;;;;;3.59;100.00;102148.03;5018936;28;20067;-63
2021/03/04 06:35:23;;;;;;;66.65;24.58;;;;;;;3.67;100.00;102151.28;5017899;28;20502;-63
2021/03/04 06:37:50;;;;;;;64.55;23.63;;;;;;;3.37;100.00;102154.16;5016958;28;20081;-63
2021/03/04 06:40:21;;;;;;;66.22;25.17;;;;;;;3.45;100.00;102149.44;5019622;28;20056;-62
2021/03/04 06:42:49;;;;;;;65.78;23.95;;;;;;;3.42;100.00;102151.38;5018436;28;20050;-62
2021/03/04 06:45:27;;;;;;;65.63;22.70;;;;;;;3.45;100.00;102160.09;5017567;28;20053;-62
2021/03/04 06:48:06;;;;;;;69.18;25.50;;;;;;;3.50;100.00;102159.91;5018510;28;20053;-62
2021/03/04 06:50:32;;;;;;;66.07;23.52;;;;;;;3.45;100.00;102162.75;5017533;28;20549;-63
2021/03/04 06:52:58;;;;;;;61.10;22.17;;;;;;;3.43;100.00;102163.72;5019353;28;20053;-62
2021/03/04 06:55:24;;;;;;;56.05;21.40;;;;;;;3.48;100.00;102156.44;5017288;28;20054;-62
2021/03/04 06:58:00;;;;;;;64.90;22.10;;;;;;;3.47;100.00;102160.03;5017949;28;20458;-63
2021/03/04 07:00:28;;;;;;;58.45;21.27;;;;;;;3.54;100.00;102158.00;5018479;28;20049;-62
2021/03/04 07:02:55;;;;;;;52.05;21.90;;;;;;;3.58;100.00;102156.94;5017626;28;20075;-63
2021/03/04 07:05:23;;;;;;;64.03;24.30;;;;;;;3.48;100.00;102151.13;5018381;28;20061;-63
2021/03/04 07:07:51;;;;;;;70.25;22.27;;;;;;;3.37;100.00;102154.16;5017784;28;20045;-63
2021/03/04 07:10:19;;;;;;;57.95;21.42;;;;;;;3.41;100.00;102154.94;5017542;28;20053;-63
2021/03/04 07:12:45;;;;;;;57.83;21.55;;;;;;;3.44;100.00;102158.34;5017769;28;20108;-63
2021/03/04 07:15:13;;;;;;;55.97;20.95;;;;;;;3.43;100.00;102153.97;5019069;28;20049;-62
2021/03/04 07:17:42;;;;;;;58.58;22.15;;;;;;;3.30;100.00;102155.34;5019065;28;20042;-62
2021/03/04 07:20:13;;;;;;;49.95;20.42;;;;;;;3.36;100.00;102152.47;5018842;28;20132;-63
2021/03/04 07:22:40;;;;;;;53.03;19.50;;;;;;;3.48;100.00;102153.78;5017317;28;20049;-63
2021/03/04 07:25:07;;;;;;;47.45;18.98;;;;;;;3.38;100.00;102155.06;5019403;28;20064;-63
2021/03/04 07:27:34;;;;;;;41.58;18.13;;;;;;;3.37;100.00;102156.84;5020527;28;20380;-62
2021/03/04 07:30:00;;;;;;;42.17;16.85;;;;;;;3.39;100.00;102163.00;5023165;28;20053;-63
2021/03/04 07:32:27;;;;;;;40.50;17.95;;;;;;;3.46;100.00;102164.50;5022346;28;20046;-62
2021/03/04 07:34:54;;;;;;;40.75;17.20;;;;;;;3.53;100.00;102164.25;5022265;28;20046;-62
2021/03/04 07:39:58;;;;;;;38.95;15.73;;;;;;;3.64;100.00;102173.56;5044477;23;20048;-62
2021/03/04 07:42:24;;;;;;;29.75;14.68;;;;;;;3.56;100.00;102180.13;5029043;28;20041;-63
2021/03/04 07:44:51;;;;;;;38.70;15.25;;;;;;;3.50;100.00;102171.44;5036691;28;20083;-63
2021/03/04 07:47:24;;;;;;;40.42;15.48;;;;;;;3.55;100.00;102178.38;5032549;28;20057;-64
2021/03/04 07:49:50;;;;;;;38.83;15.40;;;;;;;3.63;100.00;102176.28;5034899;28;20049;-62
2021/03/04 07:52:19;;;;;;;34.40;15.05;;;;;;;3.61;100.00;102170.16;5029233;28;20049;-63
2021/03/04 07:54:47;;;;;;;37.53;15.25;;;;;;;3.65;100.00;102171.75;5026046;28;20044;-63
2021/03/04 07:57:15;;;;;;;40.77;16.50;;;;;;;3.55;100.00;102173.03;5032350;28;20057;-63
2021/03/04 07:59:51;;;;;;;38.08;15.60;;;;;;;3.63;100.00;102165.63;5024674;28;20299;-63
2021/03/04 08:02:25;;;;;;;35.72;15.07;;;;;;;3.81;100.00;102161.38;5030008;28;20057;-62
2021/03/04 08:04:51;;;;;;;33.42;14.70;;;;;;;3.80;100.00;102157.88;5040443;28;20041;-62
2021/03/04 08:07:25;;;;;;;34.30;14.85;;;;;;;3.71;100.00;102157.34;5038703;28;20049;-63
2021/03/04 08:09:51;;;;;;;41.85;17.45;;;;;;;3.75;100.00;102159.81;5042162;28;20049;-64
2021/03/04 08:12:17;;;;;;;41.83;16.65;;;;;;;3.86;100.00;102157.63;5035888;28;20083;-64
2021/03/04 08:14:54;;;;;;;37.15;16.58;;;;;;;3.89;100.00;102166.41;5035641;28;20402;-62
2021/03/04 08:17:20;;;;;;;38.92;16.02;;;;;;;3.82;100.00;102155.16;5035977;28;20053;-63
2021/03/04 08:19:47;;;;;;;37.72;15.68;;;;;;;3.97;100.00;102148.34;5034102;28;20422;-64
2021/03/04 08:22:17;;;;;;;38.10;15.40;;;;;;;3.90;100.00;102149.50;5036938;28;20494;-63
2021/03/04 08:24:46;;;;;;;32.65;15.52;;;;;;;3.84;100.00;102148.84;5023542;28;20620;-62
2021/03/04 08:27:12;;;;;;;37.83;15.73;;;;;;;3.74;100.00;102150.13;5038720;28;21779;-63
2021/03/04 08:29:46;;;;;;;36.15;15.93;;;;;;;3.74;100.00;102155.44;5037882;28;20053;-62
2021/03/04 08:32:13;;;;;;;35.25;14.05;;;;;;;3.86;100.00;102146.97;5030309;28;20049;-63
2021/03/04 08:34:40;;;;;;;39.03;15.77;;;;;;;3.93;100.00;102144.06;5036714;28;20103;-62
2021/03/04 08:37:07;;;;;;;32.28;14.90;;;;;;;3.75;100.00;102143.00;5037196;28;20057;-62
2021/03/04 08:39:34;;;;;;;40.10;15.50;;;;;;;3.80;100.00;102139.22;5036848;28;20057;-63
2021/03/04 08:42:03;;;;;;;35.95;14.68;;;;;;;3.92;100.00;102139.69;5040225;28;20057;-63
2021/03/04 08:44:29;;;;;;;34.88;14.52;;;;;;;3.95;100.00;102139.56;5039032;28;20049;-64
2021/03/04 08:46:55;;;;;;;38.10;14.68;;;;;;;3.82;100.00;102126.69;5036162;28;20422;-63
2021/03/04 08:49:22;;;;;;;33.92;14.18;;;;;;;3.91;100.00;102137.94;5037423;28;20064;-62
2021/03/04 08:51:49;;;;;;;36.92;15.57;;;;;;;3.81;100.00;102142.75;5037537;28;20494;-63
2021/03/04 08:54:23;;;;;;;33.75;14.25;;;;;;;3.78;100.00;102133.06;5037140;28;20494;-63
2021/03/04 08:56:56;;;;;;;33.40;13.57;;;;;;;3.78;100.00;102142.88;5036819;28;20049;-62
2021/03/04 08:59:25;;;;;;;36.20;15.30;;;;;;;3.76;100.00;102134.94;5036286;28;20041;-63
2021/03/04 09:01:51;;;;;;;32.75;14.90;;;;;;;3.75;100.00;102143.84;5036923;28;20057;-62
2021/03/04 09:04:19;;;;;;;34.03;13.20;;;;;;;3.84;100.00;102137.28;5039357;28;20052;-63
2021/03/04 09:06:45;;;;;;;35.50;13.35;;;;;;;3.96;100.00;102138.59;5030004;28;20046;-63
2021/03/04 09:09:20;;;;;;;23.20;10.98;;;;;;;3.80;100.00;102133.03;5036809;28;20433;-62
2021/03/04 09:11:46;;;;;;;21.67;11.02;;;;;;;3.67;100.00;102119.34;5037511;28;20087;-63
2021/03/04 09:14:12;;;;;;;24.80;10.85;;;;;;;3.75;100.00;102133.19;5037067;28;20053;-62
2021/03/04 09:16:40;;;;;;;21.70;10.23;;;;;;;3.71;100.00;102126.28;5038021;28;20057;-62
2021/03/04 09:19:06;;;;;;;23.98;8.77;;;;;;;3.63;100.00;102123.03;5030795;28;20486;-63
2021/03/04 09:21:32;;;;;;;18.58;9.27;;;;;;;3.61;100.00;102124.91;5037086;28;20045;-62
2021/03/04 09:23:59;;;;;;;22.50;10.95;;;;;;;3.65;100.00;102124.72;5037131;28;20057;-63
2021/03/04 09:26:28;;;;;;;18.73;9.50;;;;;;;3.70;100.00;102124.53;5030025;28;20110;-63
2021/03/04 09:28:55;;;;;;;21.00;8.85;;;;;;;3.60;100.00;102125.81;5037243;28;20045;-63
2021/03/04 09:31:24;;;;;;;19.48;9.02;;;;;;;3.57;100.00;102128.63;5027155;28;22392;-63
2021/03/04 09:33:57;;;;;;;16.83;8.93;;;;;;;3.48;100.00;102125.38;5035074;28;20528;-63
2021/03/04 09:36:23;;;;;;;18.10;7.80;;;;;;;3.63;100.00;102131.03;5027869;28;20064;-64
2021/03/04 09:38:51;;;;;;;15.35;7.70;;;;;;;3.62;100.00;102121.31;5033342;28;20106;-62
2021/03/04 09:41:17;;;;;;;17.73;7.75;;;;;;;3.69;100.00;102128.13;5027350;28;20406;-63
2021/03/04 09:43:45;;;;;;;15.40;7.25;;;;;;;3.70;100.00;102129.88;5032993;28;20045;-62
2021/03/04 09:46:12;;;;;;;14.32;6.88;;;;;;;3.75;100.00;102129.69;5035897;28;20049;-62
2021/03/04 09:48:39;;;;;;;13.70;7.05;;;;;;;3.74;100.00;102134.16;5025919;28;20041;-63
2021/03/04 09:51:07;;;;;;;13.88;7.00;;;;;;;3.74;100.00;102135.91;5035116;28;20053;-62
2021/03/04 09:53:43;;;;;;;11.25;6.32;;;;;;;3.61;100.00;102136.41;5035226;28;20061;-63
2021/03/04 09:56:09;;;;;;;10.48;6.45;;;;;;;3.69;100.00;102133.44;5031343;28;20045;-63
2021/03/04 09:58:42;;;;;;;12.27;7.45;;;;;;;3.61;100.00;102138.22;5033781;28;20390;-61
2021/03/04 10:01:08;;;;;;;11.50;6.75;;;;;;;3.64;100.00;102130.97;5032441;28;20456;-62
2021/03/04 10:03:35;;;;;;;12.23;6.88;;;;;;;3.69;100.00;102136.09;5035347;28;20046;-62
2021/03/04 10:06:01;;;;;;;13.57;8.10;;;;;;;3.72;100.00;102133.31;5032820;28;20058;-62
2021/03/04 10:08:37;;;;;;;20.95;9.40;;;;;;;3.78;100.00;102122.41;5031011;28;20061;-63
2021/03/04 10:11:03;;;;;;;20.88;9.20;;;;;;;3.95;100.00;102127.09;5023873;28;20088;-62
2021/03/04 10:13:31;;;;;;;11.80;6.50;;;;;;;4.05;100.00;102124.94;5032690;28;20045;-62
2021/03/04 10:16:08;;;;;;;9.65;5.85;;;;;;;4.18;100.00;102131.47;5031576;28;20041;-63
2021/03/04 10:18:34;;;;;;;9.20;4.75;;;;;;;4.04;100.00;102128.50;5035910;28;20041;-62
2021/03/04 10:21:02;;;;;;;13.98;6.05;;;;;;;4.11;100.00;102132.66;5034100;28;20060;-63
2021/03/04 10:23:27;;;;;;;13.85;5.60;;;;;;;4.10;100.00;102122.06;5032630;28;20044;-62
2021/03/04 10:25:54;;;;;;;9.98;5.50;;;;;;;4.31;100.00;102121.16;5034965;28;20115;-62
2021/03/04 10:28:20;;;;;;;11.18;5.68;;;;;;;4.32;100.00;102125.56;5031431;28;20049;-62
2021/03/04 10:30:46;;;;;;;9.93;6.07;;;;;;;4.26;100.00;102127.63;5034576;28;20556;-62
2021/03/04 10:33:13;;;;;;;9.10;5.32;;;;;;;4.35;100.00;102125.44;5027051;28;20053;-63
2021/03/04 10:35:39;;;;;;;9.98;5.20;;;;;;;4.55;100.00;102129.06;5038073;28;20136;-62
2021/03/04 10:38:06;;;;;;;15.27;6.18;;;;;;;4.84;100.00;102129.59;5026615;28;20045;-63
2021/03/04 10:40:32;;;;;;;11.07;5.18;;;;;;;4.84;100.00;102124.25;5037590;28;20049;-63
2021/03/04 10:42:59;;;;;;;8.13;4.88;;;;;;;4.76;100.00;102126.41;5030276;28;20049;-62
2021/03/04 10:45:25;;;;;;;9.63;5.07;;;;;;;4.89;100.00;102127.59;5035750;28;20057;-62
2021/03/04 10:47:51;;;;;;;9.77;5.43;;;;;;;4.79;100.00;102126.28;5034217;28;20064;-62
2021/03/04 10:50:20;;;;;;;9.05;4.68;;;;;;;4.73;100.00;102128.25;5034987;28;20053;-62
2021/03/04 10:52:47;;;;;;;9.60;5.38;;;;;;;4.59;100.00;102129.78;5035531;28;20729;-62
2021/03/04 10:55:15;;;;;;;8.73;4.75;;;;;;;4.87;100.00;102126.78;5035083;28;20440;-62
2021/03/04 10:57:41;;;;;;;8.10;5.32;;;;;;;4.79;100.00;102127.13;5033003;28;20383;-62
2021/03/04 11:47:10;;;;;;;10.35;6.00;;;;;;;5.31;100.00;102118.56;4939000;23;20686;-62
2021/03/04 11:49:36;;;;;;;9.23;5.22;;;;;;;5.33;100.00;102115.81;4978795;28;20063;-62
2021/03/04 11:52:02;;;;;;;9.10;4.93;;;;;;;5.49;100.00;102113.31;4976852;28;20407;-63
2021/03/04 11:54:28;;;;;;;12.05;5.53;;;;;;;5.55;100.00;102115.69;4973342;28;20482;-62
2021/03/04 11:56:54;;;;;;;8.63;4.90;;;;;;;5.44;100.00;102110.84;4972090;28;20086;-62
2021/03/04 11:59:20;;;;;;;15.48;5.07;;;;;;;5.49;100.00;102110.63;4976699;28;20138;-63
2021/03/04 12:01:46;;;;;;;10.88;4.95;;;;;;;5.59;100.00;102107.47;4977319;28;20053;-62
2021/03/04 12:04:14;;;;;;;7.35;4.60;;;;;;;5.64;100.00;102109.03;4978512;28;20050;-63
2021/03/04 12:06:40;;;;;;;6.20;4.72;;;;;;;5.41;100.00;102111.00;4980052;28;20411;-62
2021/03/04 12:09:06;;;;;;;8.68;5.15;;;;;;;5.46;100.00;102108.13;4975439;28;20058;-64